Laura Ann — V2AR8 — position and weather

sailwx.info

Track history (hours):
 
Tides and Currents Weather Stations Pressure Air Temp Water Temp Dewpoint Dewpoint Depression Visibility Wind Speed Wind Dir Waves Ship Positions

Laura Ann

Last reported at 2017-Nov-20 00:29 UTC. Time now 2017-Nov-22 18:40 UTC.
Position N 49°28' E 000°09'.

Length 134 m; draft 8.5 m.

Type: Ship. MMSI: 305594370.

Date/timePositionNaut miles runAvg speedWind from/ knotsBaromVisibWave heightAir tempDewpointWater temp
2017-Nov-20 00:29N 49°28' E 000°09'0 0.0
2017-Nov-19 23:59N 49°28' E 000°09'0 0.0
2017-Nov-19 23:29N 49°28' E 000°09'0 0.0
2017-Nov-19 22:59N 49°28' E 000°09'0 0.0
2017-Nov-19 22:29N 49°28' E 000°09'0 0.0
2017-Nov-19 21:59N 49°28' E 000°09'0 0.0
2017-Nov-19 21:29N 49°28' E 000°09'0 0.0
2017-Nov-19 20:59N 49°28' E 000°09'0 0.0
2017-Nov-19 20:29N 49°28' E 000°09'0 0.0
2017-Nov-19 19:59N 49°28' E 000°09'0 0.0
2017-Nov-19 19:29N 49°28' E 000°09'0 0.0
2017-Nov-19 19:00N 49°28' E 000°09'1 2.5
2017-Nov-19 18:30N 49°28' E 000°07'713.7
2017-Nov-19 18:00N 49°30' W 000°03'612.9
2017-Nov-19 17:30N 49°33' W 000°12'713.1
2017-Nov-19 17:00N 49°35' W 000°22'612.8
2017-Nov-19 16:30N 49°37' W 000°31'613.1
2017-Nov-19 16:00N 49°39' W 000°40'612.7
2017-Nov-19 15:30N 49°42' W 000°49'612.2
2017-Nov-19 15:00N 49°44' W 000°58'611.5
2017-Nov-19 14:30N 49°46' W 001°06'4 8.9
2017-Nov-19 14:00N 49°48' W 001°13'4 7.3
2017-Nov-19 13:30N 49°49' W 001°18'4 7.7
2017-Nov-19 13:00N 49°50' W 001°24'4 8.3
2017-Nov-19 12:31N 49°51' W 001°30'5 9.4
2017-Nov-19 12:00N 49°51' W 001°37'510.6
2017-Nov-19 11:31N 49°52' W 001°46'611.6
2017-Nov-19 11:00N 49°52' W 001°55'612.4
2017-Nov-19 10:30N 49°52' W 002°04'12513.0
2017-Nov-19 00:51N 48°60' W 004°59'513.7
2017-Nov-19 00:30N 48°57' W 005°05'814.3
2017-Nov-18 23:58N 48°53' W 005°15'713.8
2017-Nov-18 23:28N 48°50' W 005°24'613.1
2017-Nov-18 22:59N 48°47' W 005°32'712.3
2017-Nov-18 22:26N 48°42' W 005°39'512.4
2017-Nov-18 22:00N 48°37' W 005°42'612.3
2017-Nov-18 21:28N 48°30' W 005°40'613.6
2017-Nov-18 21:00N 48°25' W 005°35'813.3
2017-Nov-18 20:26N 48°19' W 005°29'613.2
2017-Nov-18 20:00N 48°14' W 005°24'613.1
2017-Nov-18 19:31N 48°08' W 005°20'713.4
2017-Nov-18 19:00N 48°02' W 005°15'612.9
2017-Nov-18 18:30N 47°57' W 005°08'613.0
2017-Nov-18 18:00N 47°54' W 005°00'713.3
2017-Nov-18 17:31N 47°50' W 004°52'713.6
2017-Nov-18 17:00N 47°46' W 004°44'713.9
2017-Nov-18 16:30N 47°43' W 004°35'714.1
2017-Nov-18 16:00N 47°39' W 004°26'914.1
2017-Nov-18 15:22N 47°34' W 004°15'514.2
2017-Nov-18 15:01N 47°31' W 004°08'714.3
2017-Nov-18 14:30N 47°28' W 003°59'714.5
2017-Nov-18 14:01N 47°24' W 003°51'714.4
2017-Nov-18 13:30N 47°20' W 003°42'714.6
2017-Nov-18 13:00N 47°16' W 003°33'714.5
2017-Nov-18 12:30N 47°12' W 003°23'714.3
2017-Nov-18 12:00N 47°09' W 003°13'714.5
2017-Nov-18 11:30N 47°07' W 003°04'714.5
2017-Nov-18 11:01N 47°04' W 002°54'714.7
2017-Nov-18 10:30N 47°02' W 002°44'613.1
2017-Nov-18 10:01N 47°03' W 002°34'612.6
2017-Nov-18 09:31N 47°05' W 002°26'611.4
2017-Nov-18 09:00N 47°09' W 002°20'714.5
2017-Nov-18 08:30N 47°15' W 002°14'4 8.0
2017-Nov-18 08:00N 47°18' W 002°09'0 0.0
2017-Nov-18 07:28N 47°18' W 002°09'0 0.0
2017-Nov-18 06:58N 47°18' W 002°09'0 0.0
2017-Nov-18 06:28N 47°18' W 002°09'0 0.0
2017-Nov-18 05:58N 47°18' W 002°09'0 0.0
2017-Nov-18 05:28N 47°18' W 002°09'0 0.0
2017-Nov-18 04:58N 47°18' W 002°09'0 0.0
2017-Nov-18 04:28N 47°18' W 002°09'0 0.0
2017-Nov-18 03:58N 47°18' W 002°09'0 0.0
2017-Nov-18 03:28N 47°18' W 002°09'0 0.0
2017-Nov-18 02:52N 47°18' W 002°09'0 0.0
2017-Nov-18 02:25N 47°18' W 002°09'0 0.0
2017-Nov-18 01:58N 47°18' W 002°09'0 0.0
2017-Nov-18 01:28N 47°18' W 002°09'0 0.0
2017-Nov-18 00:58N 47°18' W 002°09'0 0.0
2017-Nov-18 00:28N 47°18' W 002°09'0 0.0
2017-Nov-17 23:58N 47°18' W 002°09'0 0.0
2017-Nov-17 23:28N 47°18' W 002°09'0 0.0
2017-Nov-17 22:58N 47°18' W 002°09'0 0.0
2017-Nov-17 22:28N 47°18' W 002°09'0 0.0
2017-Nov-17 21:58N 47°18' W 002°09'0 0.0
2017-Nov-17 21:25N 47°18' W 002°09'0 0.0
2017-Nov-17 20:58N 47°18' W 002°09'0 0.0
2017-Nov-17 20:25N 47°18' W 002°09'0 0.0
2017-Nov-17 19:58N 47°18' W 002°09'0 0.0
2017-Nov-17 19:30N 47°18' W 002°09'1 2.2
2017-Nov-17 19:00N 47°17' W 002°10'713.9
2017-Nov-17 18:30N 47°12' W 002°17'612.8
2017-Nov-17 18:00N 47°07' W 002°23'713.3
2017-Nov-17 17:30N 47°02' W 002°31'2911.9
2017-Nov-17 15:03N 46°33' W 002°27'214.7
2017-Nov-17 14:54N 46°32' W 002°25'614.5
2017-Nov-17 14:30N 46°27' W 002°20'714.5
2017-Nov-17 14:00N 46°21' W 002°14'714.4
2017-Nov-17 13:30N 46°16' W 002°07'814.4
2017-Nov-17 12:58N 46°09' W 002°00'714.4
2017-Nov-17 12:30N 46°04' W 001°54'714.4
2017-Nov-17 12:00N 45°58' W 001°48'714.3
2017-Nov-17 11:30N 45°53' W 001°42'714.3
2017-Nov-17 11:00N 45°47' W 001°36'714.5
2017-Nov-17 10:30N 45°41' W 001°30'714.7
2017-Nov-17 10:00N 45°36' W 001°22'917.4
2017-Nov-17 09:30N 45°39' W 001°10'815.8
2017-Nov-17 09:00N 45°33' W 001°02'917.1
2017-Nov-17 08:30N 45°27' W 000°54'816.4
2017-Nov-17 08:01N 45°20' W 000°47'917.4
2017-Nov-17 07:31N 45°12' W 000°44'916.9
2017-Nov-17 07:00N 45°04' W 000°39'712.2
2017-Nov-17 06:25N 44°59' W 000°32'410.3
2017-Nov-17 06:00N 44°54' W 000°32'0 0.0
2017-Nov-17 05:10N 44°54' W 000°32'0 0.0
2017-Nov-17 04:58N 44°54' W 000°32'0 0.0
2017-Nov-17 04:25N 44°54' W 000°32'0 0.0
2017-Nov-17 03:52N 44°54' W 000°32'0 0.0
2017-Nov-17 03:28N 44°54' W 000°32'0 0.0
2017-Nov-17 02:10N 44°54' W 000°32'0 0.0
2017-Nov-17 01:55N 44°54' W 000°32'0 0.0
2017-Nov-16 03:09N 44°54' W 000°32'0 0.6
2017-Nov-16 02:56N 44°54' W 000°33'5 8.4
2017-Nov-16 02:20N 44°59' W 000°33'616.3
2017-Nov-16 01:59N 45°04' W 000°38'916.9
2017-Nov-16 01:27N 45°12' W 000°44'817.5
2017-Nov-16 01:00N 45°19' W 000°47'917.8
2017-Nov-16 00:30N 45°27' W 000°54'917.7
2017-Nov-16 00:00N 45°34' W 001°02'816.0
2017-Nov-15 23:30N 45°39' W 001°10'916.8
2017-Nov-15 23:00N 45°36' W 001°22'610.7
2017-Nov-15 22:26N 45°40' W 001°28'510.4
2017-Nov-15 21:58N 45°44' W 001°33'510.6
2017-Nov-15 21:31N 45°48' W 001°37'1211.3
2017-Nov-15 20:28N 45°57' W 001°48'611.7
2017-Nov-15 19:58N 46°01' W 001°53'511.3
2017-Nov-15 19:31N 46°05' W 001°59'510.6
2017-Nov-15 19:01N 46°09' W 002°04'510.6
2017-Nov-15 18:31N 46°13' W 002°09'510.6
2017-Nov-15 18:01N 46°17' W 002°14'510.7
2017-Nov-15 17:31N 46°21' W 002°19'510.8
2017-Nov-15 17:00N 46°25' W 002°24'1211.1
2017-Nov-15 15:55N 46°34' W 002°36'511.3
2017-Nov-15 15:26N 46°38' W 002°41'511.6
2017-Nov-15 14:59N 46°42' W 002°46'611.6
2017-Nov-15 14:30N 46°46' W 002°51'611.5
2017-Nov-15 14:00N 46°50' W 002°57'611.6
2017-Nov-15 13:30N 46°55' W 003°03'611.5
2017-Nov-15 12:57N 46°60' W 003°09'911.4
2017-Nov-15 12:12N 47°06' W 003°17'211.4
2017-Nov-15 11:59N 47°08' W 003°19'511.3
2017-Nov-15 11:31N 47°12' W 003°24'611.2
2017-Nov-15 11:00N 47°15' W 003°32'611.4
2017-Nov-15 10:30N 47°18' W 003°38'611.5
2017-Nov-15 10:00N 47°21' W 003°46'511.3
2017-Nov-15 09:31N 47°24' W 003°53'611.3
2017-Nov-15 09:00N 47°27' W 003°60'611.4
2017-Nov-15 08:30N 47°30' W 004°07'711.2
2017-Nov-15 07:56N 47°34' W 004°15'613.6
2017-Nov-15 07:30N 47°37' W 004°22'814.7
2017-Nov-15 06:59N 47°41' W 004°32'510.4
2017-Nov-15 06:30N 47°43' W 004°38'510.5
2017-Nov-15 06:00N 47°46' W 004°45'510.9
2017-Nov-15 05:31N 47°49' W 004°52'611.1
2017-Nov-15 05:00N 47°52' W 004°59'611.3
2017-Nov-15 04:30N 47°55' W 005°06'511.3
2017-Nov-15 04:01N 47°58' W 005°13'611.1
2017-Nov-15 03:26N 48°02' W 005°20'510.9
2017-Nov-15 03:00N 48°06' W 005°24'810.8
2017-Nov-15 02:18N 48°12' W 005°30'3 9.8
2017-Nov-15 02:00N 48°15' W 005°32'77 8.1
2017-Nov-14 16:29N 49°21' W 004°33'6 9.7
2017-Nov-14 15:53N 49°23' W 004°25'24 9.1
2017-Nov-14 13:13N 49°35' W 003°53'513.6
2017-Nov-14 12:50N 49°38' W 003°46'616.6
2017-Nov-14 12:29N 49°42' W 003°39'713.2
2017-Nov-14 11:56N 49°45' W 003°29'510.4
2017-Nov-14 11:29N 49°47' W 003°23'510.8
2017-Nov-14 11:00N 49°50' W 003°16'511.2
2017-Nov-14 10:30N 49°53' W 003°08'611.4
2017-Nov-14 10:00N 49°55' W 003°00'611.5
2017-Nov-14 09:30N 49°58' W 002°52'611.3
2017-Nov-14 09:00N 49°59' W 002°44'510.9
2017-Nov-14 08:30N 50°01' W 002°36'610.4
2017-Nov-14 07:55N 50°02' W 002°26'15 9.2
2017-Nov-14 06:15N 49°59' W 002°03'2 9.3
2017-Nov-14 06:00N 49°58' W 001°60'4 8.8
2017-Nov-14 05:31N 49°57' W 001°53'4 7.6
2017-Nov-14 05:01N 49°56' W 001°48'4 7.6
2017-Nov-14 04:30N 49°54' W 001°42'4 7.5
2017-Nov-14 04:00N 49°53' W 001°36'4 7.7
2017-Nov-14 03:31N 49°52' W 001°31'4 8.0
2017-Nov-14 03:00N 49°51' W 001°25'4 8.4
2017-Nov-14 02:30N 49°49' W 001°19'6 9.4
2017-Nov-14 01:53N 49°47' W 001°10'410.2
2017-Nov-14 01:30N 49°46' W 001°05'510.8
2017-Nov-14 01:00N 49°44' W 000°57'611.4
2017-Nov-14 00:30N 49°42' W 000°49'611.7
2017-Nov-14 00:00N 49°40' W 000°40'611.9
2017-Nov-13 23:30N 49°37' W 000°32'611.8
2017-Nov-13 23:00N 49°35' W 000°23'611.7
2017-Nov-13 22:30N 49°33' W 000°15'611.4
2017-Nov-13 22:00N 49°31' W 000°07'14 0.7
2017-Nov-13 02:00N 49°36' W 000°27'510.1
2017-Nov-13 01:30N 49°37' W 000°34'5 9.9
2017-Nov-13 01:00N 49°40' W 000°41'611.9
2017-Nov-13 00:30N 49°42' W 000°49'612.6
2017-Nov-13 00:00N 49°44' W 000°58'4912.9
2017-Nov-12 20:12N 49°52' W 002°14'314.2
2017-Nov-12 20:00N 49°52' W 002°18'914.2
2017-Nov-12 19:24N 49°51' W 002°31'614.9
2017-Nov-12 19:00N 49°49' W 002°40'8814.9
2017-Nov-12 13:05N 49°07' W 004°39'215.2
2017-Nov-12 12:58N 49°06' W 004°41'1615.4
2017-Nov-12 11:56N 48°59' W 005°02'715.4
2017-Nov-12 11:30N 48°55' W 005°11'915.7
2017-Nov-12 10:55N 48°50' W 005°23'615.1
2017-Nov-12 10:30N 48°47' W 005°31'813.1
2017-Nov-12 09:52N 48°41' W 005°39'512.0
2017-Nov-12 09:26N 48°36' W 005°43'512.2
2017-Nov-12 09:00N 48°31' W 005°41'713.9
2017-Nov-12 08:29N 48°25' W 005°36'714.0
2017-Nov-12 07:59N 48°19' W 005°30'714.3
2017-Nov-12 07:30N 48°13' W 005°24'714.5
2017-Nov-12 07:00N 48°07' W 005°19'714.1
2017-Nov-12 06:30N 48°01' W 005°14'713.5
2017-Nov-12 06:01N 47°56' W 005°06'713.8
2017-Nov-12 05:31N 47°53' W 004°57'713.7
2017-Nov-12 05:00N 47°49' W 004°49'713.4
2017-Nov-12 04:30N 47°45' W 004°41'713.4
2017-Nov-12 04:00N 47°41' W 004°32'713.3
2017-Nov-12 03:30N 47°38' W 004°24'713.2
2017-Nov-12 02:57N 47°34' W 004°15'613.3
2017-Nov-12 02:29N 47°31' W 004°07'713.5
2017-Nov-12 01:59N 47°27' W 003°58'613.5
2017-Nov-12 01:30N 47°24' W 003°50'713.3
2017-Nov-12 01:00N 47°20' W 003°42'713.3
2017-Nov-12 00:30N 47°16' W 003°34'713.4
2017-Nov-12 00:00N 47°13' W 003°26'713.1
2017-Nov-11 23:30N 47°10' W 003°17'612.8
2017-Nov-11 23:00N 47°08' W 003°08'612.7
2017-Nov-11 22:30N 47°05' W 002°59'1912.4
2017-Nov-11 20:59N 47°03' W 002°32'713.3
2017-Nov-11 20:29N 47°06' W 002°23'511.1
2017-Nov-11 20:00N 47°11' W 002°18'815.2
2017-Nov-11 19:27N 47°17' W 002°10'1 2.5
2017-Nov-11 18:59N 47°18' W 002°09'0 0.0
2017-Nov-11 18:25N 47°18' W 002°09'0 0.0
2017-Nov-11 17:40N 47°18' W 002°09'0 0.0
2017-Nov-11 15:19N 47°18' W 002°09'0 0.0
2017-Nov-11 14:46N 47°18' W 002°09'0 0.0
2017-Nov-11 14:22N 47°18' W 002°09'0 0.0
2017-Nov-11 13:16N 47°18' W 002°09'0 0.0
2017-Nov-11 12:13N 47°18' W 002°09'0 0.0
2017-Nov-11 11:43N 47°18' W 002°09'0 0.2
2017-Nov-11 11:30N 47°18' W 002°09'712.0
2017-Nov-11 10:57N 47°13' W 002°16'714.0
2017-Nov-11 10:29N 47°08' W 002°21'511.3
2017-Nov-11 10:00N 47°04' W 002°27'3010.7
2017-Nov-11 07:09N 46°33' W 002°27'213.3
2017-Nov-11 07:00N 46°32' W 002°25'713.2
2017-Nov-11 06:30N 46°27' W 002°19'613.0
2017-Nov-11 06:00N 46°22' W 002°12'713.3
2017-Nov-11 05:30N 46°16' W 002°07'713.3
2017-Nov-11 04:59N 46°11' W 002°01'713.4
2017-Nov-11 04:30N 46°06' W 001°56'3413.5
2017-Nov-11 01:58N 45°38' W 001°26'511.7
2017-Nov-11 01:30N 45°38' W 001°18'917.2
2017-Nov-11 01:00N 45°38' W 001°06'714.5
2017-Nov-11 00:30N 45°32' W 001°00'917.7
2017-Nov-11 00:00N 45°25' W 000°52'815.9
2017-Nov-10 23:30N 45°18' W 000°46'713.0
2017-Nov-10 23:00N 45°12' W 000°44'  
Track history (hours):
 
Tides and Currents Weather Stations Pressure Air Temp Water Temp Dewpoint Dewpoint Depression Visibility Wind Speed Wind Dir Waves Ship Positions

Laura Ann

Last reported at 2017-Nov-20 00:29 UTC. Time now 2017-Nov-22 18:40 UTC.
Position N 49°28' E 000°09'.

Length 134 m; draft 8.5 m.

Type: Ship. MMSI: 305594370.

Date/timePositionNaut miles runAvg speedWind from/ knotsBaromVisibWave heightAir tempDewpointWater temp
2017-Nov-20 00:29N 49°28' E 000°09'0 0.0
2017-Nov-19 23:59N 49°28' E 000°09'0 0.0
2017-Nov-19 23:29N 49°28' E 000°09'0 0.0
2017-Nov-19 22:59N 49°28' E 000°09'0 0.0
2017-Nov-19 22:29N 49°28' E 000°09'0 0.0
2017-Nov-19 21:59N 49°28' E 000°09'0 0.0
2017-Nov-19 21:29N 49°28' E 000°09'0 0.0
2017-Nov-19 20:59N 49°28' E 000°09'0 0.0
2017-Nov-19 20:29N 49°28' E 000°09'0 0.0
2017-Nov-19 19:59N 49°28' E 000°09'0 0.0
2017-Nov-19 19:29N 49°28' E 000°09'0 0.0
2017-Nov-19 19:00N 49°28' E 000°09'1 2.5
2017-Nov-19 18:30N 49°28' E 000°07'713.7
2017-Nov-19 18:00N 49°30' W 000°03'612.9
2017-Nov-19 17:30N 49°33' W 000°12'713.1
2017-Nov-19 17:00N 49°35' W 000°22'612.8
2017-Nov-19 16:30N 49°37' W 000°31'613.1
2017-Nov-19 16:00N 49°39' W 000°40'612.7
2017-Nov-19 15:30N 49°42' W 000°49'612.2
2017-Nov-19 15:00N 49°44' W 000°58'611.5
2017-Nov-19 14:30N 49°46' W 001°06'4 8.9
2017-Nov-19 14:00N 49°48' W 001°13'4 7.3
2017-Nov-19 13:30N 49°49' W 001°18'4 7.7
2017-Nov-19 13:00N 49°50' W 001°24'4 8.3
2017-Nov-19 12:31N 49°51' W 001°30'5 9.4
2017-Nov-19 12:00N 49°51' W 001°37'510.6
2017-Nov-19 11:31N 49°52' W 001°46'611.6
2017-Nov-19 11:00N 49°52' W 001°55'612.4
2017-Nov-19 10:30N 49°52' W 002°04'12513.0
2017-Nov-19 00:51N 48°60' W 004°59'513.7
2017-Nov-19 00:30N 48°57' W 005°05'814.3
2017-Nov-18 23:58N 48°53' W 005°15'713.8
2017-Nov-18 23:28N 48°50' W 005°24'613.1
2017-Nov-18 22:59N 48°47' W 005°32'712.3
2017-Nov-18 22:26N 48°42' W 005°39'512.4
2017-Nov-18 22:00N 48°37' W 005°42'612.3
2017-Nov-18 21:28N 48°30' W 005°40'613.6
2017-Nov-18 21:00N 48°25' W 005°35'813.3
2017-Nov-18 20:26N 48°19' W 005°29'613.2
2017-Nov-18 20:00N 48°14' W 005°24'613.1
2017-Nov-18 19:31N 48°08' W 005°20'713.4
2017-Nov-18 19:00N 48°02' W 005°15'612.9
2017-Nov-18 18:30N 47°57' W 005°08'613.0
2017-Nov-18 18:00N 47°54' W 005°00'713.3
2017-Nov-18 17:31N 47°50' W 004°52'713.6
2017-Nov-18 17:00N 47°46' W 004°44'713.9
2017-Nov-18 16:30N 47°43' W 004°35'714.1
2017-Nov-18 16:00N 47°39' W 004°26'914.1
2017-Nov-18 15:22N 47°34' W 004°15'514.2
2017-Nov-18 15:01N 47°31' W 004°08'714.3
2017-Nov-18 14:30N 47°28' W 003°59'714.5
2017-Nov-18 14:01N 47°24' W 003°51'714.4
2017-Nov-18 13:30N 47°20' W 003°42'714.6
2017-Nov-18 13:00N 47°16' W 003°33'714.5
2017-Nov-18 12:30N 47°12' W 003°23'714.3
2017-Nov-18 12:00N 47°09' W 003°13'714.5
2017-Nov-18 11:30N 47°07' W 003°04'714.5
2017-Nov-18 11:01N 47°04' W 002°54'714.7
2017-Nov-18 10:30N 47°02' W 002°44'613.1
2017-Nov-18 10:01N 47°03' W 002°34'612.6
2017-Nov-18 09:31N 47°05' W 002°26'611.4
2017-Nov-18 09:00N 47°09' W 002°20'714.5
2017-Nov-18 08:30N 47°15' W 002°14'4 8.0
2017-Nov-18 08:00N 47°18' W 002°09'0 0.0
2017-Nov-18 07:28N 47°18' W 002°09'0 0.0
2017-Nov-18 06:58N 47°18' W 002°09'0 0.0
2017-Nov-18 06:28N 47°18' W 002°09'0 0.0
2017-Nov-18 05:58N 47°18' W 002°09'0 0.0
2017-Nov-18 05:28N 47°18' W 002°09'0 0.0
2017-Nov-18 04:58N 47°18' W 002°09'0 0.0
2017-Nov-18 04:28N 47°18' W 002°09'0 0.0
2017-Nov-18 03:58N 47°18' W 002°09'0 0.0
2017-Nov-18 03:28N 47°18' W 002°09'0 0.0
2017-Nov-18 02:52N 47°18' W 002°09'0 0.0
2017-Nov-18 02:25N 47°18' W 002°09'0 0.0
2017-Nov-18 01:58N 47°18' W 002°09'0 0.0
2017-Nov-18 01:28N 47°18' W 002°09'0 0.0
2017-Nov-18 00:58N 47°18' W 002°09'0 0.0
2017-Nov-18 00:28N 47°18' W 002°09'0 0.0
2017-Nov-17 23:58N 47°18' W 002°09'0 0.0
2017-Nov-17 23:28N 47°18' W 002°09'0 0.0
2017-Nov-17 22:58N 47°18' W 002°09'0 0.0
2017-Nov-17 22:28N 47°18' W 002°09'0 0.0
2017-Nov-17 21:58N 47°18' W 002°09'0 0.0
2017-Nov-17 21:25N 47°18' W 002°09'0 0.0
2017-Nov-17 20:58N 47°18' W 002°09'0 0.0
2017-Nov-17 20:25N 47°18' W 002°09'0 0.0
2017-Nov-17 19:58N 47°18' W 002°09'0 0.0
2017-Nov-17 19:30N 47°18' W 002°09'1 2.2
2017-Nov-17 19:00N 47°17' W 002°10'713.9
2017-Nov-17 18:30N 47°12' W 002°17'612.8
2017-Nov-17 18:00N 47°07' W 002°23'713.3
2017-Nov-17 17:30N 47°02' W 002°31'2911.9
2017-Nov-17 15:03N 46°33' W 002°27'214.7
2017-Nov-17 14:54N 46°32' W 002°25'614.5
2017-Nov-17 14:30N 46°27' W 002°20'714.5
2017-Nov-17 14:00N 46°21' W 002°14'714.4
2017-Nov-17 13:30N 46°16' W 002°07'814.4
2017-Nov-17 12:58N 46°09' W 002°00'714.4
2017-Nov-17 12:30N 46°04' W 001°54'714.4
2017-Nov-17 12:00N 45°58' W 001°48'714.3
2017-Nov-17 11:30N 45°53' W 001°42'714.3
2017-Nov-17 11:00N 45°47' W 001°36'714.5
2017-Nov-17 10:30N 45°41' W 001°30'714.7
2017-Nov-17 10:00N 45°36' W 001°22'917.4
2017-Nov-17 09:30N 45°39' W 001°10'815.8
2017-Nov-17 09:00N 45°33' W 001°02'917.1
2017-Nov-17 08:30N 45°27' W 000°54'816.4
2017-Nov-17 08:01N 45°20' W 000°47'917.4
2017-Nov-17 07:31N 45°12' W 000°44'916.9
2017-Nov-17 07:00N 45°04' W 000°39'712.2
2017-Nov-17 06:25N 44°59' W 000°32'410.3
2017-Nov-17 06:00N 44°54' W 000°32'0 0.0
2017-Nov-17 05:10N 44°54' W 000°32'0 0.0
2017-Nov-17 04:58N 44°54' W 000°32'0 0.0
2017-Nov-17 04:25N 44°54' W 000°32'0 0.0
2017-Nov-17 03:52N 44°54' W 000°32'0 0.0
2017-Nov-17 03:28N 44°54' W 000°32'0 0.0
2017-Nov-17 02:10N 44°54' W 000°32'0 0.0
2017-Nov-17 01:55N 44°54' W 000°32'0 0.0
2017-Nov-16 03:09N 44°54' W 000°32'0 0.6
2017-Nov-16 02:56N 44°54' W 000°33'5 8.4
2017-Nov-16 02:20N 44°59' W 000°33'616.3
2017-Nov-16 01:59N 45°04' W 000°38'916.9
2017-Nov-16 01:27N 45°12' W 000°44'817.5
2017-Nov-16 01:00N 45°19' W 000°47'917.8
2017-Nov-16 00:30N 45°27' W 000°54'917.7
2017-Nov-16 00:00N 45°34' W 001°02'816.0
2017-Nov-15 23:30N 45°39' W 001°10'916.8
2017-Nov-15 23:00N 45°36' W 001°22'610.7
2017-Nov-15 22:26N 45°40' W 001°28'510.4
2017-Nov-15 21:58N 45°44' W 001°33'510.6
2017-Nov-15 21:31N 45°48' W 001°37'1211.3
2017-Nov-15 20:28N 45°57' W 001°48'611.7
2017-Nov-15 19:58N 46°01' W 001°53'511.3
2017-Nov-15 19:31N 46°05' W 001°59'510.6
2017-Nov-15 19:01N 46°09' W 002°04'510.6
2017-Nov-15 18:31N 46°13' W 002°09'510.6
2017-Nov-15 18:01N 46°17' W 002°14'510.7
2017-Nov-15 17:31N 46°21' W 002°19'510.8
2017-Nov-15 17:00N 46°25' W 002°24'1211.1
2017-Nov-15 15:55N 46°34' W 002°36'511.3
2017-Nov-15 15:26N 46°38' W 002°41'511.6
2017-Nov-15 14:59N 46°42' W 002°46'611.6
2017-Nov-15 14:30N 46°46' W 002°51'611.5
2017-Nov-15 14:00N 46°50' W 002°57'611.6
2017-Nov-15 13:30N 46°55' W 003°03'611.5
2017-Nov-15 12:57N 46°60' W 003°09'911.4
2017-Nov-15 12:12N 47°06' W 003°17'211.4
2017-Nov-15 11:59N 47°08' W 003°19'511.3
2017-Nov-15 11:31N 47°12' W 003°24'611.2
2017-Nov-15 11:00N 47°15' W 003°32'611.4
2017-Nov-15 10:30N 47°18' W 003°38'611.5
2017-Nov-15 10:00N 47°21' W 003°46'511.3
2017-Nov-15 09:31N 47°24' W 003°53'611.3
2017-Nov-15 09:00N 47°27' W 003°60'611.4
2017-Nov-15 08:30N 47°30' W 004°07'711.2
2017-Nov-15 07:56N 47°34' W 004°15'613.6
2017-Nov-15 07:30N 47°37' W 004°22'814.7
2017-Nov-15 06:59N 47°41' W 004°32'510.4
2017-Nov-15 06:30N 47°43' W 004°38'510.5
2017-Nov-15 06:00N 47°46' W 004°45'510.9
2017-Nov-15 05:31N 47°49' W 004°52'611.1
2017-Nov-15 05:00N 47°52' W 004°59'611.3
2017-Nov-15 04:30N 47°55' W 005°06'511.3
2017-Nov-15 04:01N 47°58' W 005°13'611.1
2017-Nov-15 03:26N 48°02' W 005°20'510.9
2017-Nov-15 03:00N 48°06' W 005°24'810.8
2017-Nov-15 02:18N 48°12' W 005°30'3 9.8
2017-Nov-15 02:00N 48°15' W 005°32'77 8.1
2017-Nov-14 16:29N 49°21' W 004°33'6 9.7
2017-Nov-14 15:53N 49°23' W 004°25'24 9.1
2017-Nov-14 13:13N 49°35' W 003°53'513.6
2017-Nov-14 12:50N 49°38' W 003°46'616.6
2017-Nov-14 12:29N 49°42' W 003°39'713.2
2017-Nov-14 11:56N 49°45' W 003°29'510.4
2017-Nov-14 11:29N 49°47' W 003°23'510.8
2017-Nov-14 11:00N 49°50' W 003°16'511.2
2017-Nov-14 10:30N 49°53' W 003°08'611.4
2017-Nov-14 10:00N 49°55' W 003°00'611.5
2017-Nov-14 09:30N 49°58' W 002°52'611.3
2017-Nov-14 09:00N 49°59' W 002°44'510.9
2017-Nov-14 08:30N 50°01' W 002°36'610.4
2017-Nov-14 07:55N 50°02' W 002°26'15 9.2
2017-Nov-14 06:15N 49°59' W 002°03'2 9.3
2017-Nov-14 06:00N 49°58' W 001°60'4 8.8
2017-Nov-14 05:31N 49°57' W 001°53'4 7.6
2017-Nov-14 05:01N 49°56' W 001°48'4 7.6
2017-Nov-14 04:30N 49°54' W 001°42'4 7.5
2017-Nov-14 04:00N 49°53' W 001°36'4 7.7
2017-Nov-14 03:31N 49°52' W 001°31'4 8.0
2017-Nov-14 03:00N 49°51' W 001°25'4 8.4
2017-Nov-14 02:30N 49°49' W 001°19'6 9.4
2017-Nov-14 01:53N 49°47' W 001°10'410.2
2017-Nov-14 01:30N 49°46' W 001°05'510.8
2017-Nov-14 01:00N 49°44' W 000°57'611.4
2017-Nov-14 00:30N 49°42' W 000°49'611.7
2017-Nov-14 00:00N 49°40' W 000°40'611.9
2017-Nov-13 23:30N 49°37' W 000°32'611.8
2017-Nov-13 23:00N 49°35' W 000°23'611.7
2017-Nov-13 22:30N 49°33' W 000°15'611.4
2017-Nov-13 22:00N 49°31' W 000°07'14 0.7
2017-Nov-13 02:00N 49°36' W 000°27'510.1
2017-Nov-13 01:30N 49°37' W 000°34'5 9.9
2017-Nov-13 01:00N 49°40' W 000°41'611.9
2017-Nov-13 00:30N 49°42' W 000°49'612.6
2017-Nov-13 00:00N 49°44' W 000°58'4912.9
2017-Nov-12 20:12N 49°52' W 002°14'314.2
2017-Nov-12 20:00N 49°52' W 002°18'914.2
2017-Nov-12 19:24N 49°51' W 002°31'614.9
2017-Nov-12 19:00N 49°49' W 002°40'8814.9
2017-Nov-12 13:05N 49°07' W 004°39'215.2
2017-Nov-12 12:58N 49°06' W 004°41'1615.4
2017-Nov-12 11:56N 48°59' W 005°02'715.4
2017-Nov-12 11:30N 48°55' W 005°11'915.7
2017-Nov-12 10:55N 48°50' W 005°23'615.1
2017-Nov-12 10:30N 48°47' W 005°31'813.1
2017-Nov-12 09:52N 48°41' W 005°39'512.0
2017-Nov-12 09:26N 48°36' W 005°43'512.2
2017-Nov-12 09:00N 48°31' W 005°41'713.9
2017-Nov-12 08:29N 48°25' W 005°36'714.0
2017-Nov-12 07:59N 48°19' W 005°30'714.3
2017-Nov-12 07:30N 48°13' W 005°24'714.5
2017-Nov-12 07:00N 48°07' W 005°19'714.1
2017-Nov-12 06:30N 48°01' W 005°14'713.5
2017-Nov-12 06:01N 47°56' W 005°06'713.8
2017-Nov-12 05:31N 47°53' W 004°57'713.7
2017-Nov-12 05:00N 47°49' W 004°49'713.4
2017-Nov-12 04:30N 47°45' W 004°41'713.4
2017-Nov-12 04:00N 47°41' W 004°32'713.3
2017-Nov-12 03:30N 47°38' W 004°24'713.2
2017-Nov-12 02:57N 47°34' W 004°15'613.3
2017-Nov-12 02:29N 47°31' W 004°07'713.5
2017-Nov-12 01:59N 47°27' W 003°58'613.5
2017-Nov-12 01:30N 47°24' W 003°50'713.3
2017-Nov-12 01:00N 47°20' W 003°42'713.3
2017-Nov-12 00:30N 47°16' W 003°34'713.4
2017-Nov-12 00:00N 47°13' W 003°26'713.1
2017-Nov-11 23:30N 47°10' W 003°17'612.8
2017-Nov-11 23:00N 47°08' W 003°08'612.7
2017-Nov-11 22:30N 47°05' W 002°59'1912.4
2017-Nov-11 20:59N 47°03' W 002°32'713.3
2017-Nov-11 20:29N 47°06' W 002°23'511.1
2017-Nov-11 20:00N 47°11' W 002°18'815.2
2017-Nov-11 19:27N 47°17' W 002°10'1 2.5
2017-Nov-11 18:59N 47°18' W 002°09'0 0.0
2017-Nov-11 18:25N 47°18' W 002°09'0 0.0
2017-Nov-11 17:40N 47°18' W 002°09'0 0.0
2017-Nov-11 15:19N 47°18' W 002°09'0 0.0
2017-Nov-11 14:46N 47°18' W 002°09'0 0.0
2017-Nov-11 14:22N 47°18' W 002°09'0 0.0
2017-Nov-11 13:16N 47°18' W 002°09'0 0.0
2017-Nov-11 12:13N 47°18' W 002°09'0 0.0
2017-Nov-11 11:43N 47°18' W 002°09'0 0.2
2017-Nov-11 11:30N 47°18' W 002°09'712.0
2017-Nov-11 10:57N 47°13' W 002°16'714.0
2017-Nov-11 10:29N 47°08' W 002°21'511.3
2017-Nov-11 10:00N 47°04' W 002°27'3010.7
2017-Nov-11 07:09N 46°33' W 002°27'213.3
2017-Nov-11 07:00N 46°32' W 002°25'713.2
2017-Nov-11 06:30N 46°27' W 002°19'613.0
2017-Nov-11 06:00N 46°22' W 002°12'713.3
2017-Nov-11 05:30N 46°16' W 002°07'713.3
2017-Nov-11 04:59N 46°11' W 002°01'713.4
2017-Nov-11 04:30N 46°06' W 001°56'3413.5
2017-Nov-11 01:58N 45°38' W 001°26'511.7
2017-Nov-11 01:30N 45°38' W 001°18'917.2
2017-Nov-11 01:00N 45°38' W 001°06'714.5
2017-Nov-11 00:30N 45°32' W 001°00'917.7
2017-Nov-11 00:00N 45°25' W 000°52'815.9
2017-Nov-10 23:30N 45°18' W 000°46'713.0
2017-Nov-10 23:00N 45°12' W 000°44'  

Dump ship's entire track history